Time;durP1;ratioP1;P1;durP2;ratioP2;P2;SDS_P1;SDS_P2;PMS_P1;PMS_P2;Temp;Humidity;BMP_temperature;BMP_pressure;BME280_temperature;BME280_humidity;BME280_pressure;Samples;Min_cycle;Max_cycle;Signal;HPM_P1;HPM_P2
2023/01/06 00:04:07;;;;;;;7.15;3.67;;;;;;;8.25;100.00;101465.91;9932375;29;20050;-89
2023/01/06 00:09:10;;;;;;;7.15;3.05;;;;;;;8.28;100.00;101462.53;9931408;29;20531;-87
2023/01/06 00:14:13;;;;;;;8.85;2.75;;;;;;;8.32;100.00;101460.09;9932255;29;20108;-88
2023/01/06 00:19:18;;;;;;;6.82;2.72;;;;;;;8.37;100.00;101447.19;9940483;29;20100;-89
2023/01/06 00:24:20;;;;;;;8.93;3.60;;;;;;;8.37;100.00;101446.31;9941162;29;20070;-88
2023/01/06 00:29:22;;;;;;;8.35;3.05;;;;;;;8.39;100.00;101439.44;9940727;29;20050;-89
2023/01/06 00:34:27;;;;;;;5.07;2.55;;;;;;;8.42;100.00;101434.31;9939434;29;20142;-90
2023/01/06 00:39:29;;;;;;;8.00;3.90;;;;;;;8.45;100.00;101439.69;9934081;29;20380;-89
2023/01/06 00:44:34;;;;;;;11.82;3.10;;;;;;;8.44;100.00;101422.28;9938463;29;20047;-88
2023/01/06 00:49:37;;;;;;;5.95;3.22;;;;;;;8.50;100.00;101435.53;9931032;29;20145;-90
2023/01/06 00:54:39;;;;;;;6.57;3.35;;;;;;;8.52;100.00;101415.59;9924550;29;20117;-88
2023/01/06 00:59:42;;;;;;;4.07;2.47;;;;;;;8.53;100.00;101409.53;9931674;29;20057;-89
2023/01/06 01:04:49;;;;;;;7.43;3.80;;;;;;;8.55;100.00;101417.44;9931744;29;20360;-88
2023/01/06 01:09:51;;;;;;;6.30;3.42;;;;;;;8.56;100.00;101414.00;9951643;29;20051;-87
2023/01/06 01:14:54;;;;;;;7.68;3.78;;;;;;;8.54;100.00;101413.94;9937621;29;20389;-90
2023/01/06 01:19:58;;;;;;;9.40;4.05;;;;;;;8.59;100.00;101407.16;9945075;29;20146;-89
2023/01/06 01:25:02;;;;;;;6.75;3.30;;;;;;;8.59;100.00;101407.16;9948724;29;20078;-89
2023/01/06 01:30:22;;;;;;;6.07;3.03;;;;;;;8.60;100.00;101414.16;9933679;29;20059;-90
2023/01/06 01:35:44;;;;;;;7.30;3.35;;;;;;;8.62;100.00;101407.25;9944224;29;20146;-91
2023/01/06 01:47:40;;;;;;;;;;;;;;;;;;;;;
2023/01/06 06:24:02;;;;;;;;;;;;;;;;;;;;;
2023/01/06 06:42:39;;;;;;;;;;;;;;;;;;;;;
2023/01/06 08:24:07;;;;;;;0.30;0.30;;;;;;;8.68;94.67;101075.00;9938152;29;20055;-87
2023/01/06 08:29:11;;;;;;;0.10;0.10;;;;;;;8.61;95.36;101086.09;9894589;29;20070;-85
2023/01/06 08:34:13;;;;;;;0.45;0.45;;;;;;;8.53;95.79;101088.50;9906808;29;20043;-85
2023/01/06 08:39:15;;;;;;;0.60;0.60;;;;;;;8.48;96.22;101090.06;9906006;29;20083;-85
2023/01/06 08:44:17;;;;;;;0.20;0.20;;;;;;;8.49;96.64;101086.63;9899380;29;20139;-86
2023/01/06 08:49:19;;;;;;;0.47;0.47;;;;;;;8.51;96.98;101105.81;9902239;29;20134;-84
2023/01/06 08:54:20;;;;;;;0.50;0.50;;;;;;;8.51;97.20;101104.94;9909740;29;20542;-85
2023/01/06 08:59:22;;;;;;;2.70;1.02;;;;;;;8.55;97.51;101132.91;9904949;29;20103;-85
2023/01/06 09:04:24;;;;;;;0.55;0.45;;;;;;;8.60;97.81;101139.16;9907485;29;20054;-83
2023/01/06 09:09:25;;;;;;;0.55;0.45;;;;;;;8.55;98.03;101139.00;9905397;29;20055;-85
2023/01/06 09:14:28;;;;;;;0.43;0.38;;;;;;;8.56;98.26;101139.91;9897678;29;20052;-85
2023/01/06 09:19:29;;;;;;;0.40;0.40;;;;;;;8.61;98.28;101139.19;9909252;29;20059;-84
2023/01/06 09:24:32;;;;;;;0.60;0.57;;;;;;;8.68;98.74;101150.72;9904368;29;20047;-84
2023/01/06 09:29:33;;;;;;;1.50;0.77;;;;;;;8.76;98.82;101158.78;9888266;29;20142;-85
2023/01/06 09:34:35;;;;;;;1.63;0.77;;;;;;;8.82;98.87;101177.25;9890810;29;20249;-85
2023/01/06 09:39:37;;;;;;;0.47;0.47;;;;;;;8.90;99.11;101177.47;9886569;29;20470;-86
2023/01/06 09:44:48;;;;;;;0.93;0.50;;;;;;;8.89;99.03;101192.28;9895665;29;20455;-87
2023/01/06 09:50:00;;;;;;;0.70;0.50;;;;;;;8.87;98.71;101204.38;9902959;29;20113;-85
2023/01/06 09:55:59;;;;;;;0.25;0.20;;;;;;;8.85;98.83;101206.94;9893376;29;20511;-88
2023/01/06 10:02:23;;;;;;;0.43;0.40;;;;;;;8.71;98.18;101229.13;9913627;29;20054;-88
2023/01/06 11:12:28;;;;;;;1.02;0.47;;;;;;;9.51;87.61;101319.53;10793183;24;20069;-88
2023/01/06 11:17:34;;;;;;;5.72;0.20;;;;;;;9.48;86.70;101324.69;9941208;29;20530;-90
2023/01/06 11:22:44;;;;;;;0.10;0.10;;;;;;;9.41;85.91;101314.88;9960656;24;20058;-88
2023/01/06 11:28:19;;;;;;;1.60;0.57;;;;;;;9.45;85.22;101333.31;9928805;29;20128;-88
2023/01/06 11:33:35;;;;;;;0.20;0.20;;;;;;;9.28;84.44;101330.19;9910126;29;20552;-90
2023/01/06 11:39:12;;;;;;;1.23;0.40;;;;;;;9.02;84.10;101338.09;9928086;29;20089;-90
2023/01/06 11:44:38;;;;;;;0.13;0.13;;;;;;;9.06;84.04;101323.38;9926387;29;20096;-89
2023/01/06 11:49:49;;;;;;;0.75;0.20;;;;;;;9.34;84.01;101326.88;9930422;29;20063;-89
2023/01/06 11:55:07;;;;;;;0.20;0.20;;;;;;;9.28;83.77;101331.91;9924871;29;20047;-89
2023/01/06 12:00:42;;;;;;;0.10;0.10;;;;;;;9.06;83.24;101331.22;9920681;29;20067;-88
2023/01/06 12:06:12;;;;;;;0.10;0.10;;;;;;;9.10;83.05;101342.69;9929452;29;20079;-88
2023/01/06 12:11:26;;;;;;;1.58;0.38;;;;;;;9.11;82.83;101349.66;9934503;29;20559;-88
2023/01/06 12:16:44;;;;;;;0.25;0.20;;;;;;;9.11;82.27;101344.44;9916998;29;20058;-88
2023/01/06 12:21:46;;;;;;;1.55;0.43;;;;;;;9.16;81.97;101338.50;9935125;29;20065;-87
2023/01/06 12:26:49;;;;;;;0.10;0.10;;;;;;;9.25;81.86;101351.00;9928265;29;20592;-87
2023/01/06 12:32:17;;;;;;;0.30;0.30;;;;;;;9.23;81.74;101351.78;9941404;29;20047;-87
2023/01/06 12:37:36;;;;;;;0.10;0.10;;;;;;;9.03;81.76;101347.69;9924150;29;20055;-87
2023/01/06 12:42:44;;;;;;;2.33;0.37;;;;;;;8.75;81.36;101347.63;9926935;29;20127;-87
2023/01/06 12:47:54;;;;;;;1.65;0.50;;;;;;;8.77;81.79;101353.78;9932777;29;20572;-87
2023/01/06 12:53:11;;;;;;;0.45;0.25;;;;;;;8.82;81.59;101354.81;9958447;29;20058;-86
2023/01/06 12:58:37;;;;;;;0.60;0.20;;;;;;;8.90;81.71;101349.84;9931277;29;20057;-86
2023/01/06 13:04:02;;;;;;;1.85;0.80;;;;;;;8.90;81.72;101348.09;9926812;29;20066;-88
2023/01/06 13:09:33;;;;;;;0.10;0.10;;;;;;;8.77;81.67;101349.44;9933496;29;20047;-86
2023/01/06 13:14:54;;;;;;;0.10;0.10;;;;;;;8.64;81.48;101361.19;9907571;29;20054;-88
2023/01/06 13:20:01;;;;;;;1.33;0.45;;;;;;;8.52;81.21;101373.81;9929472;29;20054;-87
2023/01/06 13:25:42;;;;;;;0.15;0.15;;;;;;;8.46;81.16;101384.06;9930190;29;20055;-86
2023/01/06 13:30:43;;;;;;;0.32;0.32;;;;;;;8.37;81.62;101384.56;9924838;29;20055;-87
2023/01/06 13:36:08;;;;;;;0.73;0.20;;;;;;;8.28;81.89;101377.31;9931127;29;20062;-87
2023/01/06 13:41:16;;;;;;;2.42;1.48;;;;;;;8.23;82.80;101380.59;9930250;29;20113;-88
2023/01/06 13:46:21;;;;;;;2.15;0.63;;;;;;;8.26;82.81;101381.59;9930532;29;20058;-88
2023/01/06 13:51:29;;;;;;;0.20;0.13;;;;;;;8.31;83.03;101373.91;9931554;29;20058;-86
2023/01/06 13:56:33;;;;;;;0.88;0.65;;;;;;;8.35;83.09;101380.13;9922980;29;20047;-87
2023/01/06 14:01:34;;;;;;;0.17;0.13;;;;;;;8.37;83.19;101381.97;9930784;29;20528;-87
2023/01/06 14:06:36;;;;;;;1.95;0.40;;;;;;;8.39;83.25;101375.09;9929453;29;20058;-87
2023/01/06 14:11:41;;;;;;;1.48;0.75;;;;;;;8.36;83.40;101382.81;9932558;29;20062;-88
2023/01/06 14:16:49;;;;;;;1.17;0.40;;;;;;;8.32;83.70;101375.72;9930916;29;20066;-87
2023/01/06 14:21:53;;;;;;;0.30;0.30;;;;;;;8.25;83.70;101376.31;9927851;29;20076;-85
2023/01/06 14:27:03;;;;;;;0.20;0.20;;;;;;;8.21;83.66;101380.53;9918827;29;20046;-86
2023/01/06 14:32:29;;;;;;;0.90;0.55;;;;;;;8.14;83.82;101386.38;9918029;29;20117;-86
2023/01/06 14:37:58;;;;;;;0.40;0.40;;;;;;;8.12;83.74;101394.13;9914759;29;20497;-86
2023/01/06 14:43:21;;;;;;;0.55;0.47;;;;;;;8.05;83.50;101391.25;9922474;29;20055;-85
2023/01/06 14:48:27;;;;;;;0.32;0.28;;;;;;;8.02;83.67;101409.41;9926384;29;20062;-85
2023/01/06 14:53:36;;;;;;;1.05;0.50;;;;;;;7.95;83.50;101411.75;9926477;29;20363;-85
2023/01/06 14:58:37;;;;;;;2.08;0.65;;;;;;;7.92;83.51;101427.28;9926383;29;20051;-86
2023/01/06 15:03:39;;;;;;;0.20;0.20;;;;;;;7.89;83.63;101426.28;9927522;29;20112;-86
2023/01/06 15:08:41;;;;;;;0.73;0.40;;;;;;;7.77;83.86;101416.28;9926294;29;20512;-85
2023/01/06 15:13:44;;;;;;;1.38;0.77;;;;;;;7.68;83.71;101413.31;9925204;29;20053;-86
2023/01/06 15:18:46;;;;;;;0.57;0.57;;;;;;;7.67;84.25;101429.78;9926113;29;20112;-85
2023/01/06 15:23:50;;;;;;;0.85;0.60;;;;;;;7.61;84.21;101431.31;9923332;29;20336;-85
2023/01/06 15:28:59;;;;;;;0.22;0.22;;;;;;;7.56;84.73;101419.81;9924706;29;20050;-86
2023/01/06 15:34:07;;;;;;;0.10;0.10;;;;;;;7.57;84.78;101418.09;9929682;29;20424;-86
2023/01/06 15:39:13;;;;;;;0.75;0.50;;;;;;;7.50;84.71;101422.19;9934514;29;20179;-85
2023/01/06 15:44:28;;;;;;;0.88;0.47;;;;;;;7.43;84.76;101425.34;9932521;29;20047;-87
2023/01/06 15:49:34;;;;;;;2.67;0.77;;;;;;;7.39;85.19;101420.88;9933050;29;20533;-85
2023/01/06 15:54:41;;;;;;;1.38;0.95;;;;;;;7.38;84.96;101426.91;9910465;29;20054;-87
2023/01/06 15:59:55;;;;;;;1.23;0.60;;;;;;;7.37;84.92;101435.53;9932146;29;20059;-86
2023/01/06 16:05:01;;;;;;;0.95;0.57;;;;;;;7.32;85.16;101439.69;9932039;29;20051;-86
2023/01/06 16:10:23;;;;;;;1.58;0.60;;;;;;;7.24;85.06;101439.38;9932360;29;20054;-86
2023/01/06 16:15:44;;;;;;;1.27;0.82;;;;;;;7.19;85.31;101439.19;9931101;29;20119;-86
2023/01/06 16:20:46;;;;;;;1.05;0.40;;;;;;;7.05;85.52;101442.91;9931416;29;20043;-85
2023/01/06 16:25:48;;;;;;;6.38;1.30;;;;;;;6.91;86.02;101442.34;9921353;29;20096;-86
2023/01/06 16:31:08;;;;;;;1.27;0.80;;;;;;;6.79;86.32;101444.44;9932563;29;20070;-86
2023/01/06 16:36:12;;;;;;;0.70;0.55;;;;;;;6.67;86.49;101444.78;9932221;29;20416;-86
2023/01/06 16:41:18;;;;;;;0.75;0.40;;;;;;;6.54;86.86;101431.25;9930902;29;20519;-85
2023/01/06 16:46:24;;;;;;;0.77;0.50;;;;;;;6.53;87.37;101437.25;9930866;29;20159;-86
2023/01/06 16:51:27;;;;;;;4.15;1.83;;;;;;;6.54;87.86;101454.66;9931682;29;20058;-86
2023/01/06 16:56:29;;;;;;;0.60;0.60;;;;;;;6.49;88.05;101461.34;9933420;29;20261;-86
2023/01/06 17:01:31;;;;;;;0.43;0.43;;;;;;;6.45;88.14;101451.63;9931330;29;20150;-88
2023/01/06 17:06:33;;;;;;;0.10;0.10;;;;;;;6.47;88.42;101454.31;9931101;29;20103;-85
2023/01/06 17:11:37;;;;;;;0.82;0.43;;;;;;;6.36;88.46;101449.53;9930660;29;20177;-85
2023/01/06 17:16:40;;;;;;;0.65;0.40;;;;;;;6.37;88.77;101461.69;9923843;29;20603;-86
2023/01/06 17:21:42;;;;;;;1.02;0.73;;;;;;;6.37;88.73;101463.41;9924544;29;20725;-86
2023/01/06 17:26:57;;;;;;;0.93;0.38;;;;;;;6.31;88.80;101452.75;9932418;29;20535;-85
2023/01/06 17:32:01;;;;;;;0.80;0.63;;;;;;;6.30;89.07;101458.75;9932602;29;20085;-86
2023/01/06 17:37:20;;;;;;;5.30;0.90;;;;;;;6.19;89.07;101453.94;9933218;29;20540;-86
2023/01/06 17:42:34;;;;;;;0.60;0.52;;;;;;;6.19;89.11;101455.69;9931361;29;20050;-85
2023/01/06 17:47:48;;;;;;;0.68;0.40;;;;;;;6.29;89.58;101463.09;9930880;29;20123;-85
2023/01/06 17:55:41;;;;;;;4.95;1.27;;;;;;;6.30;89.79;101467.44;9932939;29;20321;-86
2023/01/06 17:58:20;;;;;;;0.20;0.20;;;;;;;6.25;89.46;101466.34;9936590;29;20092;-86
2023/01/06 18:03:25;;;;;;;0.75;0.60;;;;;;;6.24;89.44;101464.56;9937529;29;20081;-87
2023/01/06 18:08:29;;;;;;;0.43;0.25;;;;;;;6.24;89.49;101468.88;9929964;29;20751;-86
2023/01/06 18:13:34;;;;;;;0.30;0.30;;;;;;;6.29;89.52;101467.38;9928338;29;20125;-86
2023/01/06 18:18:38;;;;;;;2.13;0.43;;;;;;;6.24;89.62;101471.50;9928015;29;20140;-86
2023/01/06 18:23:48;;;;;;;2.38;1.10;;;;;;;6.23;89.81;101467.09;9927664;29;20446;-85
2023/01/06 18:28:50;;;;;;;0.55;0.25;;;;;;;6.15;89.61;101470.22;9923585;29;20074;-86
2023/01/06 18:33:52;;;;;;;1.83;0.65;;;;;;;6.08;89.67;101472.47;9929784;29;20051;-87
2023/01/06 18:38:55;;;;;;;1.13;0.50;;;;;;;5.98;89.70;101471.19;9930743;29;20074;-86
2023/01/06 18:43:56;;;;;;;0.65;0.50;;;;;;;5.92;90.05;101476.06;9933539;29;20133;-86
2023/01/06 18:48:58;;;;;;;0.55;0.40;;;;;;;5.81;90.05;101483.31;9940356;29;20069;-86
2023/01/06 18:54:00;;;;;;;0.40;0.40;;;;;;;5.83;90.32;101477.38;9940100;29;20063;-86
2023/01/06 18:59:11;;;;;;;5.05;0.75;;;;;;;5.76;90.61;101484.81;9933569;29;20147;-86
2023/01/06 19:04:28;;;;;;;0.25;0.25;;;;;;;5.69;90.78;101486.25;9931962;29;20043;-86
2023/01/06 19:09:36;;;;;;;0.47;0.30;;;;;;;5.70;91.05;101480.22;9930867;29;20080;-86
2023/01/06 19:14:41;;;;;;;0.22;0.22;;;;;;;5.57;91.25;101483.94;9929834;29;20059;-86
2023/01/06 19:19:43;;;;;;;0.85;0.52;;;;;;;5.50;91.41;101471.47;9932778;29;20486;-86
2023/01/06 19:25:27;;;;;;;3.38;0.85;;;;;;;5.52;91.60;101468.94;9936460;29;20050;-88
2023/01/06 19:30:46;;;;;;;2.33;0.73;;;;;;;5.54;92.05;101468.22;9930049;29;20092;-85
2023/01/06 19:35:50;;;;;;;1.25;0.70;;;;;;;5.63;92.11;101457.34;9919865;29;20047;-87
2023/01/06 19:40:53;;;;;;;0.45;0.45;;;;;;;5.70;92.21;101459.44;9927412;29;20170;-85
2023/01/06 19:45:55;;;;;;;2.65;0.77;;;;;;;5.69;92.24;101454.16;9924804;29;20059;-86
2023/01/06 19:51:19;;;;;;;1.38;0.80;;;;;;;5.63;92.17;101465.16;9926675;29;20512;-86
2023/01/06 19:56:27;;;;;;;1.13;0.60;;;;;;;5.57;92.15;101470.97;9927850;29;20347;-86
2023/01/06 20:01:31;;;;;;;1.27;0.60;;;;;;;5.57;92.15;101459.66;9925449;29;20440;-86
2023/01/06 20:06:34;;;;;;;1.08;0.63;;;;;;;5.46;92.09;101459.16;9926740;29;20047;-87
2023/01/06 20:11:36;;;;;;;0.98;0.70;;;;;;;5.43;92.27;101454.69;9927595;29;20050;-86
2023/01/06 20:16:37;;;;;;;1.58;0.63;;;;;;;5.37;92.20;101453.50;9928495;29;20424;-88
2023/01/06 20:21:39;;;;;;;0.45;0.45;;;;;;;5.34;92.25;101459.44;9934936;29;20058;-86
2023/01/06 20:26:41;;;;;;;0.40;0.40;;;;;;;5.35;92.33;101455.16;9934724;29;20138;-86
2023/01/06 20:31:44;;;;;;;0.40;0.40;;;;;;;5.38;92.49;101456.19;9935918;29;20077;-86
2023/01/06 20:36:46;;;;;;;1.00;0.30;;;;;;;5.39;92.15;101463.16;9921311;29;20043;-86
2023/01/06 20:41:47;;;;;;;0.60;0.22;;;;;;;5.35;91.98;101461.22;9932740;29;20137;-86
2023/01/06 20:46:49;;;;;;;0.45;0.40;;;;;;;5.32;92.31;101458.47;9933299;29;20054;-85
2023/01/06 20:51:51;;;;;;;0.63;0.45;;;;;;;5.29;92.27;101461.81;9926132;29;20174;-87
2023/01/06 20:56:53;;;;;;;0.55;0.50;;;;;;;5.21;92.21;101452.75;9925587;29;20055;-86
2023/01/06 21:01:55;;;;;;;0.22;0.22;;;;;;;5.20;92.31;101457.88;9932928;29;20078;-86
2023/01/06 21:06:57;;;;;;;1.17;0.95;;;;;;;5.13;92.13;101462.78;9946842;29;20054;-86
2023/01/06 21:11:58;;;;;;;3.97;0.93;;;;;;;5.08;92.19;101469.41;9933006;29;20505;-87
2023/01/06 21:17:02;;;;;;;0.30;0.30;;;;;;;5.02;92.29;101471.72;9929993;29;20051;-86
2023/01/06 21:22:04;;;;;;;0.38;0.38;;;;;;;5.00;92.34;101457.78;9928743;29;20321;-86
2023/01/06 21:27:06;;;;;;;1.25;0.68;;;;;;;5.05;92.60;101445.03;9930935;29;20054;-86
2023/01/06 21:32:08;;;;;;;1.40;0.93;;;;;;;5.03;92.59;101444.03;9930491;29;20082;-86
2023/01/06 21:37:10;;;;;;;2.20;1.48;;;;;;;5.04;92.92;101438.91;9930224;29;20138;-87
2023/01/06 21:47:32;;;;;;;2.83;1.30;;;;;;;5.08;92.86;101430.47;9951774;29;20520;-86
2023/01/06 21:52:34;;;;;;;2.10;1.27;;;;;;;4.98;93.31;101451.59;9960470;29;20452;-86
2023/01/06 21:57:36;;;;;;;5.55;2.90;;;;;;;4.83;93.27;101450.81;9952188;29;20079;-86
2023/01/06 22:02:38;;;;;;;2.00;1.20;;;;;;;4.70;93.39;101450.22;9936143;29;20574;-86
2023/01/06 22:07:44;;;;;;;6.30;1.60;;;;;;;4.55;93.33;101441.63;9928610;29;20055;-86
2023/01/06 22:12:51;;;;;;;1.70;0.90;;;;;;;4.43;93.43;101458.31;9927018;29;20079;-86
2023/01/06 22:17:58;;;;;;;1.75;0.93;;;;;;;4.41;93.78;101444.41;9920872;29;20135;-87
2023/01/06 22:23:04;;;;;;;1.20;0.75;;;;;;;4.37;94.12;101439.84;9927234;29;20057;-86
2023/01/06 22:28:05;;;;;;;2.72;1.15;;;;;;;4.21;94.26;101432.06;9927850;29;20058;-86
2023/01/06 22:33:07;;;;;;;2.08;0.90;;;;;;;4.06;94.29;101430.44;9925850;29;20078;-86
2023/01/06 22:38:09;;;;;;;1.02;0.90;;;;;;;3.92;94.53;101428.81;9926095;29;20050;-86
2023/01/06 22:43:11;;;;;;;2.13;1.42;;;;;;;3.79;94.56;101431.53;9926165;29;20081;-86
2023/01/06 22:48:12;;;;;;;1.10;0.90;;;;;;;3.71;94.76;101420.75;9926613;29;20583;-85
2023/01/06 22:53:15;;;;;;;7.15;2.70;;;;;;;3.64;94.63;101421.22;9926362;29;20149;-87
2023/01/06 22:58:16;;;;;;;3.90;2.80;;;;;;;3.62;94.89;101415.97;9927196;29;20051;-86
2023/01/06 23:03:20;;;;;;;1.65;1.17;;;;;;;3.61;95.05;101424.53;9926386;29;20066;-86
2023/01/06 23:08:22;;;;;;;2.85;1.70;;;;;;;3.62;95.33;101434.09;9925034;29;20439;-86
2023/01/06 23:13:23;;;;;;;4.55;1.95;;;;;;;3.71;95.47;101426.81;9923826;29;20062;-86
2023/01/06 23:18:25;;;;;;;2.70;1.50;;;;;;;3.87;95.71;101422.47;9927935;29;20051;-86
2023/01/06 23:23:28;;;;;;;2.42;1.20;;;;;;;4.00;95.92;101422.34;9925583;29;20062;-86
2023/01/06 23:28:30;;;;;;;3.10;2.08;;;;;;;4.15;96.04;101419.66;9926556;29;20085;-88
2023/01/06 23:33:36;;;;;;;4.07;2.28;;;;;;;4.43;96.42;101418.53;9925564;29;20153;-86
2023/01/06 23:38:38;;;;;;;2.88;1.92;;;;;;;4.85;96.54;101412.84;9927773;29;20047;-86
2023/01/06 23:43:40;;;;;;;4.47;2.58;;;;;;;5.35;97.23;101406.69;9924017;29;20050;-86
2023/01/06 23:48:42;;;;;;;3.70;2.35;;;;;;;5.65;97.50;101388.19;9912479;29;20142;-87
2023/01/06 23:53:51;;;;;;;3.47;2.00;;;;;;;5.99;98.07;101393.25;9928836;29;20683;-87
2023/01/06 23:58:58;;;;;;;3.25;1.80;;;;;;;6.29;98.31;101385.06;9931311;29;20061;-88
